createdAt,value
2016-09-13T03:00:29.603Z,52
2016-09-13T03:00:55.168Z,52
2016-09-13T03:01:20.706Z,51.62
2016-09-13T03:01:46.277Z,51.42
2016-09-13T03:02:11.855Z,51.52
2016-09-13T03:02:37.407Z,51.62
2016-09-13T03:03:02.972Z,51.52
2016-09-13T03:03:28.548Z,51.32
2016-09-13T03:03:54.104Z,51.32
2016-09-13T03:04:19.721Z,51.52
2016-09-13T03:04:45.280Z,51.52
2016-09-13T03:05:10.846Z,51.52
2016-09-13T03:05:36.423Z,51.32
2016-09-13T03:06:01.992Z,51.42
2016-09-13T03:06:27.658Z,51.25
2016-09-13T03:06:53.231Z,51.62
2016-09-13T03:07:18.806Z,51.06
2016-09-13T03:07:44.372Z,51.25
2016-09-13T03:08:42.456Z,51.25
2016-09-13T03:09:08.132Z,51.06
2016-09-13T03:09:33.679Z,50.77
2016-09-13T03:12:28.927Z,50.38
2016-09-13T03:12:54.534Z,50.31
2016-09-13T03:13:20.082Z,50.12
2016-09-13T03:13:45.640Z,50.41
2016-09-13T03:14:11.257Z,49.92
2016-09-13T03:14:36.786Z,49.56
2016-09-13T03:15:02.410Z,49.66
2016-09-13T03:15:27.995Z,49.75
2016-09-13T03:15:53.557Z,49.92
2016-09-13T03:16:19.132Z,49.82
2016-09-13T03:16:44.691Z,49.75
2016-09-13T03:17:10.262Z,49.63
2016-09-13T03:17:35.912Z,49.75
2016-09-13T03:18:01.458Z,49.66
2016-09-13T03:18:27.023Z,49.95
2016-09-13T03:18:52.567Z,49.85
2016-09-13T03:19:18.131Z,49.66
2016-09-13T03:19:43.685Z,49.66
2016-09-13T03:20:09.254Z,49.75
2016-09-13T03:20:34.831Z,49.85
2016-09-13T03:21:00.403Z,49.27
2016-09-13T03:21:25.958Z,49.56
2016-09-13T03:21:51.514Z,49.75
2016-09-13T03:22:17.087Z,49.27
2016-09-13T03:22:42.659Z,49.37
2016-09-13T03:23:08.229Z,49.27
2016-09-13T03:23:33.794Z,49.27
2016-09-13T03:23:59.346Z,49.27
2016-09-13T03:24:24.889Z,49.46
2016-09-13T03:24:50.423Z,49.56
2016-09-13T03:25:15.966Z,49.27
2016-09-13T03:25:41.531Z,49.56
2016-09-13T03:26:07.073Z,49.46
2016-09-13T03:26:32.634Z,49.27
2016-09-13T03:26:58.194Z,49.95
2016-09-13T03:27:23.749Z,49.56
2016-09-13T03:27:49.298Z,49.46
2016-09-13T03:28:14.863Z,49.66
2016-09-13T03:28:40.477Z,49.46
2016-09-13T03:29:06.041Z,49.75
2016-09-13T03:29:31.615Z,49.85
2016-09-13T03:29:57.249Z,49.66
2016-09-13T03:30:22.829Z,49.37
2016-09-13T03:30:48.377Z,49.82
2016-09-13T03:31:13.919Z,50.02
2016-09-13T03:31:39.478Z,50.41
2016-09-13T03:32:05.037Z,50.41
2016-09-13T03:32:30.591Z,50.5
2016-09-13T03:32:56.140Z,50.21
2016-09-13T03:33:21.698Z,50.41
2016-09-13T03:33:47.276Z,50.41
2016-09-13T03:34:12.814Z,50.31
2016-09-13T03:34:38.350Z,50.31
2016-09-13T03:35:03.899Z,50.02
2016-09-13T03:35:29.456Z,50.31
2016-09-13T03:35:55.005Z,50.31
2016-09-13T03:36:20.544Z,50.6
2016-09-13T03:36:46.083Z,50.5
2016-09-13T03:37:11.689Z,50.41
2016-09-13T03:37:37.285Z,50.5
2016-09-13T03:38:02.861Z,50.41
2016-09-13T03:38:28.419Z,50.7
2016-09-13T03:38:53.974Z,50.67
2016-09-13T03:39:19.539Z,50.5
2016-09-13T03:39:45.100Z,50.7
2016-09-13T03:40:10.703Z,50.6
2016-09-13T03:40:36.243Z,50.7
2016-09-13T03:41:01.773Z,50.5
2016-09-13T03:41:27.419Z,50.5
2016-09-13T03:41:52.970Z,50.5
2016-09-13T03:42:18.540Z,50.5
2016-09-13T03:42:44.133Z,50.67
2016-09-13T03:43:09.695Z,51.35
2016-09-13T03:43:35.254Z,51.16
2016-09-13T03:44:00.810Z,51.06
2016-09-13T03:44:26.373Z,51.16
2016-09-13T03:44:51.921Z,51.25
2016-09-13T03:45:17.506Z,50.96
2016-09-13T03:45:43.063Z,51.06
2016-09-13T03:46:08.626Z,51.35
2016-09-13T03:46:34.198Z,51.16
2016-09-13T03:46:59.774Z,51.25
2016-09-13T03:47:25.328Z,51.25
2016-09-13T03:47:50.891Z,51.16
2016-09-13T03:48:16.545Z,51.35
2016-09-13T03:48:42.099Z,51.25
2016-09-13T03:49:07.660Z,51.16
2016-09-13T03:49:33.213Z,50.96
2016-09-13T03:49:58.987Z,50.96
2016-09-13T03:50:24.594Z,51.35
2016-09-13T03:50:50.160Z,51.25
2016-09-13T03:51:15.694Z,51.06
2016-09-13T03:51:41.354Z,51.25
2016-09-13T03:52:06.911Z,51.25
2016-09-13T03:52:32.469Z,51.35
2016-09-13T03:52:58.047Z,51.16
2016-09-13T03:53:23.741Z,51.16
2016-09-13T03:53:49.294Z,51.25
2016-09-13T03:54:14.850Z,51.25
2016-09-13T03:54:40.393Z,51.06
2016-09-13T03:55:05.927Z,51.16
2016-09-13T03:55:31.558Z,51.16
2016-09-13T03:55:57.126Z,51.25
2016-09-13T03:56:22.690Z,51.25
2016-09-13T03:56:48.388Z,51.16
2016-09-13T03:57:13.995Z,51.25
2016-09-13T03:57:39.544Z,51.16
2016-09-13T03:58:05.186Z,50.87
2016-09-13T03:58:30.769Z,51.06
2016-09-13T03:58:56.354Z,51.06
2016-09-13T03:59:21.953Z,51.06
2016-09-13T03:59:47.503Z,50.96
2016-09-13T04:00:13.073Z,50.87
2016-09-13T04:00:38.640Z,50.87
2016-09-13T04:01:04.204Z,51.06
2016-09-13T04:01:29.786Z,51.06
2016-09-13T04:01:55.343Z,50.87
2016-09-13T04:02:20.898Z,50.87
2016-09-13T04:02:46.532Z,51.35
2016-09-13T04:03:12.124Z,51.16
2016-09-13T04:03:37.696Z,51.16
2016-09-13T04:04:46.034Z,51.06
2016-09-13T04:05:11.594Z,50.96
2016-09-13T04:05:37.147Z,50.96
2016-09-13T04:06:02.720Z,50.57
2016-09-13T04:06:28.292Z,50.67
2016-09-13T04:06:53.874Z,50.96
2016-09-13T04:07:19.455Z,50.48
2016-09-13T04:07:45.028Z,50.48
2016-09-13T04:08:10.573Z,50.96
2016-09-13T04:08:36.151Z,50.87
2016-09-13T04:09:01.774Z,50.87
2016-09-13T04:09:27.315Z,50.48
2016-09-13T04:09:52.898Z,50.6
2016-09-13T04:10:18.466Z,50.79
2016-09-13T04:10:44.050Z,50.89
2016-09-13T04:11:09.690Z,50.41
2016-09-13T04:11:35.212Z,50.41
2016-09-13T04:12:00.841Z,50.31
2016-09-13T04:12:26.391Z,50.31
2016-09-13T04:12:51.963Z,49.82
2016-09-13T04:13:17.538Z,49.73
2016-09-13T04:13:43.172Z,49.73
2016-09-13T04:14:08.745Z,49.82
2016-09-13T04:14:34.354Z,49.73
2016-09-13T04:14:59.911Z,49.73
2016-09-13T04:15:25.482Z,49.63
2016-09-13T04:15:51.117Z,49.54
2016-09-13T04:16:16.726Z,49.73
2016-09-13T04:17:30.140Z,49.82
2016-09-13T04:17:55.701Z,50.02
2016-09-13T04:18:21.261Z,49.82
2016-09-13T04:18:46.863Z,49.63
2016-09-13T04:19:12.428Z,49.82
2016-09-13T04:19:37.993Z,49.92
2016-09-13T04:20:03.577Z,49.82
2016-09-13T04:20:29.233Z,49.82
2016-09-13T04:20:54.800Z,50.12
2016-09-13T04:21:20.375Z,50.21
2016-09-13T04:21:45.939Z,50.21
2016-09-13T04:22:11.503Z,50.12
2016-09-13T04:22:37.191Z,50.41
2016-09-13T04:23:02.746Z,50.12
2016-09-13T04:23:28.306Z,50.48
2016-09-13T04:23:53.869Z,50.5
2016-09-13T04:24:19.430Z,50.41
2016-09-13T04:24:44.998Z,50.31
2016-09-13T04:25:10.560Z,50.41
2016-09-13T04:25:36.223Z,50.31
2016-09-13T04:26:01.782Z,50.5
2016-09-13T04:26:27.333Z,50.41
2016-09-13T04:26:52.932Z,50.38
2016-09-13T04:27:18.504Z,50.02
2016-09-13T04:27:44.151Z,50.31
2016-09-13T04:28:09.704Z,50.5
2016-09-13T04:28:35.271Z,50.31
2016-09-13T04:29:00.833Z,50.31
2016-09-13T04:29:26.411Z,50.31
2016-09-13T04:29:52.115Z,50.21
2016-09-13T04:30:17.712Z,49.92
2016-09-13T04:30:43.260Z,50.02
2016-09-13T04:31:08.842Z,49.82
2016-09-13T04:31:34.512Z,49.92
2016-09-13T04:32:00.070Z,49.82
2016-09-13T04:32:25.648Z,50.02
2016-09-13T04:32:51.241Z,50.31
2016-09-13T04:33:16.807Z,50.41
2016-09-13T04:33:42.368Z,50.31
2016-09-13T04:34:07.936Z,50.5
2016-09-13T04:34:33.511Z,49.92
2016-09-13T04:34:59.074Z,49.82
2016-09-13T04:35:24.652Z,50.02
2016-09-13T04:35:50.213Z,49.92
2016-09-13T04:36:15.786Z,50.5
2016-09-13T04:36:41.368Z,50.31
2016-09-13T04:37:06.933Z,50.5
2016-09-13T04:37:32.490Z,50.41
2016-09-13T04:37:58.061Z,50.5
2016-09-13T04:38:23.644Z,50.31
2016-09-13T04:38:49.295Z,50.31
2016-09-13T04:39:42.273Z,50.5
2016-09-13T04:40:07.831Z,50.31
2016-09-13T04:40:33.385Z,50.41
2016-09-13T04:40:58.987Z,50.5
2016-09-13T04:41:24.589Z,50.02
2016-09-13T04:41:50.174Z,50.6
2016-09-13T04:42:15.738Z,50.5
2016-09-13T04:42:41.384Z,50.5
2016-09-13T04:43:06.949Z,50.41
2016-09-13T04:43:32.564Z,50.31
2016-09-13T04:43:58.163Z,50.41
2016-09-13T04:44:23.731Z,50.21
2016-09-13T04:44:49.311Z,50.31
2016-09-13T04:45:14.887Z,50.21
2016-09-13T04:45:40.476Z,50.41
2016-09-13T04:46:06.057Z,50.21
2016-09-13T04:46:31.632Z,49.92
2016-09-13T04:46:57.277Z,50.02
2016-09-13T04:47:22.808Z,50.21
2016-09-13T04:47:48.381Z,50.6
2016-09-13T04:48:13.943Z,49.82
2016-09-13T04:48:39.502Z,49.82
2016-09-13T04:49:05.087Z,49.92
2016-09-13T04:49:30.664Z,50.02
2016-09-13T04:49:56.204Z,49.92
2016-09-13T04:50:21.766Z,49.92
2016-09-13T04:50:47.328Z,49.82
2016-09-13T04:51:12.909Z,49.82
2016-09-13T04:51:38.482Z,50.02
2016-09-13T04:52:04.042Z,49.92
2016-09-13T04:52:29.594Z,50.02
2016-09-13T04:52:55.232Z,49.92
2016-09-13T04:53:20.770Z,50.31
2016-09-13T04:53:46.324Z,50.31
2016-09-13T04:54:11.879Z,50.21
2016-09-13T04:54:37.426Z,50.31
2016-09-13T04:55:03.006Z,50.31
2016-09-13T04:55:28.671Z,50.31
2016-09-13T04:55:54.220Z,50.29
2016-09-13T04:56:19.790Z,50.31
2016-09-13T04:56:45.352Z,50.31
2016-09-13T04:57:10.940Z,50.31
2016-09-13T04:57:36.563Z,50.77
2016-09-13T04:58:02.114Z,50.7
2016-09-13T04:58:27.657Z,50.41
2016-09-13T04:58:53.246Z,50.19
2016-09-13T04:59:18.808Z,50.41
2016-09-13T04:59:44.373Z,50.12
2016-09-13T05:00:10.040Z,50.31
2016-09-13T05:00:35.592Z,50.31
2016-09-13T05:01:01.153Z,50.31
2016-09-13T05:01:26.715Z,50.29
2016-09-13T05:01:52.277Z,50.38
2016-09-13T05:02:17.861Z,50.38
2016-09-13T05:02:43.409Z,50.5
2016-09-13T05:03:08.989Z,50.29
2016-09-13T05:03:34.549Z,50.21
2016-09-13T05:04:00.110Z,50.38
2016-09-13T05:04:25.692Z,50.21
2016-09-13T05:04:51.281Z,50.31
2016-09-13T05:05:16.843Z,50.77
2016-09-13T05:05:42.397Z,50.21
2016-09-13T05:06:07.969Z,50.19
2016-09-13T05:06:33.525Z,50.12
2016-09-13T05:06:59.086Z,50.5
2016-09-13T05:07:24.659Z,50.41
2016-09-13T05:07:50.230Z,50.38
2016-09-13T05:08:15.767Z,50.19
2016-09-13T05:08:41.348Z,50.67
2016-09-13T05:09:06.890Z,50.29
2016-09-13T05:09:32.441Z,50.48
2016-09-13T05:09:58.016Z,50.38
2016-09-13T05:10:23.560Z,50.57
2016-09-13T05:10:49.132Z,50.57
2016-09-13T05:11:14.678Z,50.48
2016-09-13T05:11:40.246Z,50.48
2016-09-13T05:12:05.918Z,50.29
2016-09-13T05:12:31.470Z,50.77
2016-09-13T05:12:57.015Z,50.38
2016-09-13T05:13:22.586Z,50.57
2016-09-13T05:13:48.164Z,50.57
2016-09-13T05:14:13.741Z,51.06
2016-09-13T05:14:39.341Z,50.96
2016-09-13T05:15:04.889Z,50.77
2016-09-13T05:15:30.455Z,50.57
2016-09-13T05:15:56.009Z,50.48
2016-09-13T05:16:21.566Z,50.57
2016-09-13T05:16:47.158Z,50.48
2016-09-13T05:17:12.721Z,50.77
2016-09-13T05:17:38.295Z,50.48
2016-09-13T05:18:03.874Z,50.29
2016-09-13T05:18:29.497Z,50.09
2016-09-13T05:18:55.067Z,50.19
2016-09-13T05:19:20.627Z,50.48
2016-09-13T05:19:46.225Z,49.8
2016-09-13T05:20:11.782Z,49.8
2016-09-13T05:20:37.379Z,49.82
2016-09-13T05:21:45.801Z,49.99
2016-09-13T05:22:11.381Z,50.02
2016-09-13T05:22:36.976Z,49.92
2016-09-13T05:23:02.560Z,49.82
2016-09-13T05:23:28.111Z,50.02
2016-09-13T05:23:53.670Z,49.44
2016-09-13T05:24:19.239Z,49.15
2016-09-13T05:24:44.789Z,49.54
2016-09-13T05:25:10.363Z,49.54
2016-09-13T05:25:36.125Z,49.44
2016-09-13T05:26:01.700Z,49.34
2016-09-13T05:26:27.265Z,49.54
2016-09-13T05:26:52.835Z,49.44
2016-09-13T05:27:18.406Z,49.54
2016-09-13T05:27:43.966Z,49.44
2016-09-13T05:28:09.538Z,49.54
2016-09-13T05:28:35.126Z,49.24
2016-09-13T05:29:00.693Z,49.05
2016-09-13T05:29:26.249Z,49.24
2016-09-13T05:29:51.824Z,49.37
2016-09-13T05:30:17.429Z,49.24
2016-09-13T05:30:42.996Z,49.44
2016-09-13T05:31:08.568Z,49.05
2016-09-13T05:31:34.248Z,49.24
2016-09-13T05:31:59.817Z,49.24
2016-09-13T05:32:25.401Z,49.54
2016-09-13T05:32:51.244Z,49.24
2016-09-13T05:33:16.828Z,49.34
2016-09-13T05:33:42.394Z,49.34
2016-09-13T05:34:08.116Z,49.15
2016-09-13T05:34:33.685Z,49.34
2016-09-13T05:34:59.257Z,49.44
2016-09-13T05:35:24.829Z,49.54
2016-09-13T05:35:50.420Z,49.54
2016-09-13T05:36:15.994Z,49.44
2016-09-13T05:36:41.548Z,49.34
2016-09-13T05:37:07.113Z,49.34
2016-09-13T05:37:32.693Z,49.34
2016-09-13T05:37:58.294Z,49.24
2016-09-13T05:38:23.863Z,49.54
2016-09-13T05:38:49.429Z,49.54
2016-09-13T05:39:14.998Z,49.82
2016-09-13T05:39:40.574Z,49.63
2016-09-13T05:40:06.174Z,49.41
2016-09-13T05:40:31.750Z,49.63
2016-09-13T05:40:57.308Z,49.92
2016-09-13T05:41:22.935Z,49.82
2016-09-13T05:41:48.516Z,50.12
2016-09-13T05:42:14.118Z,49.92
2016-09-13T05:42:39.678Z,49.92
2016-09-13T05:43:05.247Z,49.99
2016-09-13T05:43:30.940Z,50.19
2016-09-13T05:43:56.486Z,49.8
2016-09-13T05:44:22.315Z,50.57
2016-09-13T05:44:47.886Z,50.29
2016-09-13T05:45:13.458Z,50.29
2016-09-13T05:45:39.044Z,50.38
2016-09-13T05:46:04.617Z,50.29
2016-09-13T05:46:30.176Z,50.29
2016-09-13T05:46:55.751Z,50.29
2016-09-13T05:47:21.317Z,50.09
2016-09-13T05:47:46.885Z,50.29
2016-09-13T05:48:12.460Z,50.29
2016-09-13T05:48:38.037Z,50.29
2016-09-13T05:49:03.619Z,50.29
2016-09-13T05:49:29.201Z,50.38
2016-09-13T05:49:54.770Z,50.09
2016-09-13T05:50:20.401Z,50.29
2016-09-13T05:50:45.963Z,50.29
2016-09-13T05:51:11.654Z,50.29
2016-09-13T05:51:37.237Z,50.38
2016-09-13T05:52:02.797Z,50.38
2016-09-13T05:52:28.372Z,50.38
2016-09-13T05:52:53.943Z,50.77
2016-09-13T05:53:19.547Z,50.48
2016-09-13T05:53:45.106Z,50.67
2016-09-13T05:54:10.661Z,50.38
2016-09-13T05:54:36.437Z,50.57
2016-09-13T05:55:02.021Z,50.48
2016-09-13T05:55:27.727Z,50.48
2016-09-13T05:55:53.311Z,50.67
2016-09-13T05:56:18.881Z,50.38
2016-09-13T05:56:44.445Z,50.87
2016-09-13T05:57:09.999Z,50.67
2016-09-13T05:57:35.617Z,50.48
2016-09-13T05:58:01.188Z,50.77
2016-09-13T05:58:26.749Z,50.67
2016-09-13T05:58:52.346Z,50.67
2016-09-13T05:59:17.905Z,50.48
2016-09-13T05:59:43.513Z,50.48
2016-09-13T06:00:09.080Z,50.48
2016-09-13T06:01:02.087Z,50.67
2016-09-13T06:01:27.663Z,50.29
2016-09-13T06:01:53.231Z,50.77
2016-09-13T06:02:18.799Z,50.57
2016-09-13T06:03:32.300Z,50.19
2016-09-13T06:03:57.872Z,50.29
2016-09-13T06:04:23.441Z,50.38
2016-09-13T06:04:49.134Z,50.29
2016-09-13T06:05:14.698Z,50.29
2016-09-13T06:05:40.229Z,49.99
2016-09-13T06:06:05.779Z,50.29
2016-09-13T06:06:31.325Z,50.38
2016-09-13T06:06:56.910Z,50.48
2016-09-13T06:07:22.443Z,50.19
2016-09-13T06:07:47.982Z,50.21
2016-09-13T06:08:13.527Z,50.48
2016-09-13T06:08:39.114Z,50.29
2016-09-13T06:09:04.683Z,50.19
2016-09-13T06:09:30.225Z,50.09
2016-09-13T06:09:55.799Z,50.21
2016-09-13T06:10:21.366Z,50.09
2016-09-13T06:10:47.062Z,50.48
2016-09-13T06:11:12.600Z,50.29
2016-09-13T06:11:38.171Z,50.38
2016-09-13T06:12:03.724Z,50.38
2016-09-13T06:12:29.395Z,50.38
2016-09-13T06:12:54.953Z,50.48
2016-09-13T06:13:20.499Z,50.48
2016-09-13T06:13:46.067Z,50.48
2016-09-13T06:14:11.749Z,50.87
2016-09-13T06:14:37.304Z,50.38
2016-09-13T06:15:02.848Z,50.67
2016-09-13T06:15:28.409Z,50.38
2016-09-13T06:15:53.998Z,50.67
2016-09-13T06:16:19.602Z,50.48
2016-09-13T06:16:45.164Z,50.48
2016-09-13T06:17:10.746Z,50.48
2016-09-13T06:17:36.310Z,50.38
2016-09-13T06:18:01.858Z,50.67
2016-09-13T06:18:27.504Z,50.57
2016-09-13T06:18:53.088Z,50.67
2016-09-13T06:19:18.715Z,50.67
2016-09-13T06:19:44.299Z,50.48
2016-09-13T06:20:09.882Z,50.57
2016-09-13T06:20:35.457Z,50.67
2016-09-13T06:21:01.042Z,50.48
2016-09-13T06:21:26.611Z,50.87
2016-09-13T06:21:52.167Z,50.87
2016-09-13T06:22:17.735Z,50.57
2016-09-13T06:22:43.387Z,50.96
2016-09-13T06:23:08.969Z,50.77
2016-09-13T06:23:34.544Z,50.96
2016-09-13T06:24:00.107Z,50.96
2016-09-13T06:24:25.661Z,50.77
2016-09-13T06:24:51.218Z,51.16
2016-09-13T06:25:16.793Z,50.87
2016-09-13T06:26:14.906Z,50.87
2016-09-13T06:26:40.548Z,50.96
2016-09-13T06:27:06.114Z,51.06
2016-09-13T06:27:31.693Z,50.96
2016-09-13T06:27:57.234Z,50.87
2016-09-13T06:28:22.804Z,50.77
2016-09-13T06:28:48.370Z,50.67
2016-09-13T06:29:13.937Z,50.96
2016-09-13T06:29:39.487Z,50.96
2016-09-13T06:30:05.075Z,50.67
2016-09-13T06:30:30.642Z,50.67
2016-09-13T06:30:56.206Z,50.38
2016-09-13T06:31:21.743Z,50.29
2016-09-13T06:31:47.316Z,50.67
2016-09-13T06:32:12.919Z,50.48
2016-09-13T06:32:38.484Z,50.57
2016-09-13T06:33:04.034Z,50.57
2016-09-13T06:33:29.603Z,50.57
2016-09-13T06:33:55.167Z,50.38
2016-09-13T06:34:20.721Z,50.38
2016-09-13T06:34:46.295Z,50.57
2016-09-13T06:35:11.836Z,50.48
2016-09-13T06:35:37.394Z,50.29
2016-09-13T06:36:02.977Z,50.48
2016-09-13T06:36:28.560Z,50.48
2016-09-13T06:36:54.135Z,50.48
2016-09-13T06:37:19.700Z,50.57
2016-09-13T06:37:45.281Z,50.67
2016-09-13T06:38:10.841Z,50.48
2016-09-13T06:38:36.396Z,50.87
2016-09-13T06:39:01.944Z,50.87
2016-09-13T06:39:27.511Z,50.38
2016-09-13T06:39:53.075Z,50.38
2016-09-13T06:40:18.657Z,50.87
2016-09-13T06:40:44.225Z,50.38
2016-09-13T06:41:09.780Z,50.67
2016-09-13T06:41:35.371Z,50.48
2016-09-13T06:42:01.074Z,50.77
2016-09-13T06:42:26.674Z,50.87
2016-09-13T06:42:52.221Z,50.67
2016-09-13T06:43:17.921Z,50.67
2016-09-13T06:43:43.465Z,50.57
2016-09-13T06:44:09.039Z,50.38
2016-09-13T06:44:34.598Z,50.77
2016-09-13T06:45:00.287Z,50.57
2016-09-13T06:45:25.904Z,50.77
2016-09-13T06:45:51.480Z,50.77
2016-09-13T06:46:49.551Z,50.38
2016-09-13T06:47:15.106Z,50.48
2016-09-13T06:47:40.674Z,50.77
2016-09-13T06:48:06.219Z,50.48
2016-09-13T06:48:31.804Z,50.77
2016-09-13T06:48:57.352Z,50.77
2016-09-13T06:49:22.927Z,50.96
2016-09-13T06:49:48.528Z,50.96
2016-09-13T06:50:14.097Z,51.06
2016-09-13T06:50:39.663Z,50.87
2016-09-13T06:51:05.416Z,51.06
2016-09-13T06:51:30.794Z,51.06
2016-09-13T06:51:56.358Z,51.06
2016-09-13T06:52:59.552Z,50.57
2016-09-13T06:53:25.257Z,50.77
2016-09-13T06:53:50.826Z,50.77
2016-09-13T06:54:16.386Z,51.06
2016-09-13T06:54:41.928Z,50.87
2016-09-13T06:55:07.617Z,50.87
2016-09-13T06:55:33.228Z,51.16
2016-09-13T06:55:58.805Z,50.96
2016-09-13T06:56:24.363Z,50.77
2016-09-13T06:56:50.034Z,51.16
2016-09-13T06:57:15.614Z,50.96
2016-09-13T06:57:41.175Z,50.87
2016-09-13T06:58:06.740Z,50.87
2016-09-13T06:58:32.313Z,50.96
2016-09-13T06:59:45.710Z,50.96
2016-09-13T07:00:11.265Z,50.96
2016-09-13T07:00:36.806Z,51.06
2016-09-13T07:01:02.425Z,50.96
2016-09-13T07:01:27.986Z,50.96
2016-09-13T07:01:53.541Z,50.96
2016-09-13T07:02:19.115Z,51.06
2016-09-13T07:02:44.667Z,50.96
2016-09-13T07:03:10.209Z,51.06
2016-09-13T07:03:35.743Z,50.77
2016-09-13T07:04:01.317Z,50.67
2016-09-13T07:04:26.935Z,51.06
2016-09-13T07:04:52.505Z,51.16
2016-09-13T07:05:18.082Z,50.87
2016-09-13T07:05:43.643Z,51.45
2016-09-13T07:06:09.208Z,51.06
2016-09-13T07:06:34.763Z,51.25
2016-09-13T07:07:00.324Z,51.16
2016-09-13T07:07:25.884Z,50.96
2016-09-13T07:07:51.480Z,50.96
2016-09-13T07:08:17.144Z,51.16
2016-09-13T07:08:42.701Z,50.77
2016-09-13T07:09:08.287Z,51.06
2016-09-13T07:09:33.968Z,51.16
2016-09-13T07:09:59.578Z,51.45
2016-09-13T07:10:25.140Z,51.25
2016-09-13T07:10:50.685Z,51.35
2016-09-13T07:11:16.244Z,51.45
2016-09-13T07:11:41.820Z,51.64
2016-09-13T07:12:07.387Z,52
2016-09-13T07:12:32.936Z,51.93
2016-09-13T07:12:58.480Z,52.03
2016-09-13T07:13:24.050Z,51.45
2016-09-13T07:13:49.683Z,51.35
2016-09-13T07:14:15.253Z,51.35
2016-09-13T07:14:40.830Z,51.45
2016-09-13T07:15:06.438Z,51.54
2016-09-13T07:15:32.001Z,51.64
2016-09-13T07:15:57.573Z,51.35
2016-09-13T07:16:23.171Z,51.32
2016-09-13T07:16:48.748Z,51.25
2016-09-13T07:17:14.313Z,51.35
2016-09-13T07:17:39.857Z,51.52
2016-09-13T07:18:05.425Z,51.64
2016-09-13T07:18:30.998Z,52.03
2016-09-13T07:18:56.551Z,51.45
2016-09-13T07:19:22.135Z,51.64
2016-09-13T07:19:47.720Z,51.06
2016-09-13T07:20:13.275Z,50.96
2016-09-13T07:20:38.894Z,51.06
2016-09-13T07:21:04.521Z,51.45
2016-09-13T07:21:30.095Z,51.54
2016-09-13T07:21:55.641Z,51.25
2016-09-13T07:22:21.212Z,51.84
2016-09-13T07:22:46.802Z,51.84
2016-09-13T07:23:12.374Z,51.84
2016-09-13T07:23:37.942Z,51.93
2016-09-13T07:24:03.525Z,52.03
2016-09-13T07:24:29.068Z,51.45
2016-09-13T07:24:54.706Z,51.35
2016-09-13T07:25:20.268Z,51.25
2016-09-13T07:25:45.856Z,51.35
2016-09-13T07:27:00.453Z,51.06
2016-09-13T07:29:04.534Z,51.54
2016-09-13T07:29:30.109Z,51.45
2016-09-13T07:29:55.665Z,51.45
2016-09-13T07:30:21.222Z,51.35
2016-09-13T07:30:46.829Z,51.45
2016-09-13T07:31:12.397Z,52.03
2016-09-13T07:31:37.967Z,51.84
2016-09-13T07:32:03.531Z,51.54
2016-09-13T07:32:29.117Z,52.03
2016-09-13T07:32:54.714Z,51.64
2016-09-13T07:33:20.260Z,51.84
2016-09-13T07:33:45.834Z,52.03
2016-09-13T07:34:11.423Z,51.74
2016-09-13T07:34:36.973Z,51.64
2016-09-13T07:35:02.566Z,51.93
2016-09-13T07:35:28.143Z,52.03
2016-09-13T07:35:53.707Z,52.03
2016-09-13T07:36:19.273Z,52.12
2016-09-13T07:36:44.858Z,52.03
2016-09-13T07:37:10.499Z,52.12
2016-09-13T07:37:36.068Z,52.12
2016-09-13T07:38:49.461Z,52.12
2016-09-13T07:39:15.015Z,51.74
2016-09-13T07:39:40.681Z,51.84
2016-09-13T07:40:06.240Z,51.84
2016-09-13T07:40:31.797Z,51.64
2016-09-13T07:40:57.367Z,51.84
2016-09-13T07:41:22.920Z,51.64
2016-09-13T07:41:48.496Z,51.84
2016-09-13T07:42:14.168Z,51.45
2016-09-13T07:42:39.927Z,51.74
2016-09-13T07:43:05.490Z,51.84
2016-09-13T07:43:31.029Z,51.45
2016-09-13T07:43:56.696Z,51.64
2016-09-13T07:44:22.260Z,51.09
2016-09-13T07:44:47.808Z,51.18
2016-09-13T07:45:13.438Z,51.47
2016-09-13T07:45:39.013Z,51.47
2016-09-13T07:46:04.573Z,52.03
2016-09-13T07:46:30.224Z,51.35
2016-09-13T07:46:55.926Z,51.47
2016-09-13T07:47:21.489Z,52.12
2016-09-13T07:47:47.170Z,51.84
2016-09-13T07:48:12.789Z,51.84
2016-09-13T07:48:38.388Z,52.03
2016-09-13T07:49:03.964Z,51.84
2016-09-13T07:49:29.539Z,51.93
2016-09-13T07:49:55.122Z,52.12
2016-09-13T07:50:20.678Z,52.32
2016-09-13T07:50:46.215Z,52.12
2016-09-13T07:51:11.792Z,51.93
2016-09-13T07:51:37.367Z,51.84
2016-09-13T07:52:02.932Z,52.22
2016-09-13T07:52:28.505Z,51.93
2016-09-13T07:52:54.100Z,52.03
2016-09-13T07:53:19.672Z,52.22
2016-09-13T07:53:45.246Z,52.32
2016-09-13T07:54:10.797Z,52.22
2016-09-13T07:54:36.467Z,52.12
2016-09-13T07:55:02.034Z,52.22
2016-09-13T07:55:27.614Z,51.74
2016-09-13T07:55:53.201Z,52.22
2016-09-13T07:56:18.885Z,51.93
2016-09-13T07:56:44.473Z,52.22
2016-09-13T07:57:10.063Z,51.84
2016-09-13T07:57:35.624Z,52.12
2016-09-13T07:58:01.167Z,52.12
2016-09-13T07:58:26.728Z,52.12
2016-09-13T07:58:52.285Z,52.22
2016-09-13T07:59:17.822Z,52.51
2016-09-13T07:59:43.413Z,52.51
2016-09-13T08:00:08.976Z,52.42
2016-09-13T08:00:34.523Z,52.42
2016-09-13T08:01:00.073Z,52.42
2016-09-13T08:01:25.624Z,52.12
2016-09-13T08:01:51.174Z,52.12
2016-09-13T08:02:16.740Z,52.22
2016-09-13T08:02:42.354Z,51.93
2016-09-13T08:03:07.893Z,52.22
2016-09-13T08:03:34.103Z,52.22
2016-09-13T08:03:59.660Z,52.42
2016-09-13T08:04:25.207Z,52.32
2016-09-13T08:04:50.771Z,52.32
2016-09-13T08:05:16.361Z,52.12
2016-09-13T08:05:41.909Z,52.51
2016-09-13T08:06:07.465Z,52.12
2016-09-13T08:06:33.027Z,52.25
2016-09-13T08:06:59.228Z,52.15
2016-09-13T08:07:24.774Z,52.06
2016-09-13T08:07:50.398Z,52.34
2016-09-13T08:08:15.940Z,52.06
2016-09-13T08:08:41.504Z,52.12
2016-09-13T08:09:07.123Z,51.76
2016-09-13T08:09:32.660Z,52.25
2016-09-13T08:09:58.225Z,52.25
2016-09-13T08:10:23.784Z,51.96
2016-09-13T08:10:49.345Z,52.34
2016-09-13T08:11:14.928Z,52.15
2016-09-13T08:11:40.522Z,51.96
2016-09-13T08:12:06.107Z,52.34
2016-09-13T08:12:31.645Z,52.06
2016-09-13T08:12:57.263Z,52.54
2016-09-13T08:13:22.959Z,52.54
2016-09-13T08:13:48.543Z,52.15
2016-09-13T08:14:14.121Z,52.34
2016-09-13T08:14:39.671Z,52.64
2016-09-13T08:15:05.252Z,52.64
2016-09-13T08:15:30.818Z,52.64
2016-09-13T08:15:56.372Z,52.15
2016-09-13T08:16:21.929Z,52.54
2016-09-13T08:16:47.502Z,52.06
2016-09-13T08:17:13.082Z,52.25
2016-09-13T08:17:38.675Z,52.34
2016-09-13T08:18:04.251Z,52.25
2016-09-13T08:18:29.805Z,52.64
2016-09-13T08:18:55.379Z,52.34
2016-09-13T08:19:20.945Z,52.44
2016-09-13T08:19:46.541Z,52.34
2016-09-13T08:20:12.139Z,52.15
2016-09-13T08:20:37.714Z,52.44
2016-09-13T08:21:03.304Z,52.25
2016-09-13T08:21:28.905Z,52.44
2016-09-13T08:21:54.532Z,52.06
2016-09-13T08:22:52.657Z,52.83
2016-09-13T08:23:18.342Z,52.44
2016-09-13T08:23:43.914Z,52.54
2016-09-13T08:24:09.499Z,52.44
2016-09-13T08:24:35.052Z,52.34
2016-09-13T08:25:00.633Z,52.64
2016-09-13T08:25:26.188Z,52.44
2016-09-13T08:25:51.741Z,52.73
2016-09-13T08:26:17.295Z,52.83
2016-09-13T08:26:42.852Z,52.83
2016-09-13T08:27:08.501Z,52.64
2016-09-13T08:27:34.170Z,52.06
2016-09-13T08:27:59.748Z,52.83
2016-09-13T08:28:25.519Z,52.54
2016-09-13T08:28:51.082Z,52.64
2016-09-13T08:29:16.641Z,52.25
2016-09-13T08:29:42.210Z,52.34
2016-09-13T08:30:07.771Z,52.34
2016-09-13T08:30:33.334Z,52.34
2016-09-13T08:30:58.886Z,52.73
2016-09-13T08:31:24.483Z,52.34
2016-09-13T08:31:50.052Z,52.34
2016-09-13T08:32:15.613Z,52.34
2016-09-13T08:32:41.157Z,52.66
2016-09-13T08:33:06.724Z,52.44
2016-09-13T08:33:32.271Z,52.47
2016-09-13T08:33:57.857Z,52.28
2016-09-13T08:34:23.425Z,52.34
2016-09-13T08:34:48.982Z,52.37
2016-09-13T08:35:14.546Z,52.28
2016-09-13T08:35:40.112Z,52.08
2016-09-13T08:36:53.680Z,52.95
2016-09-13T08:37:19.306Z,52.18
2016-09-13T08:37:44.891Z,52.47
2016-09-13T08:38:10.455Z,52.76
2016-09-13T08:38:36.004Z,53.34
2016-09-13T08:39:01.562Z,53.34
2016-09-13T08:39:27.149Z,52.76
2016-09-13T08:39:52.715Z,53.53
2016-09-13T08:40:18.295Z,52.66
2016-09-13T08:40:43.861Z,53.05
2016-09-13T08:41:09.452Z,53.24
2016-09-13T08:41:35.072Z,53.34
2016-09-13T08:42:00.633Z,53.73
2016-09-13T08:42:26.200Z,53.53
2016-09-13T08:42:51.770Z,53.05
2016-09-13T08:43:17.357Z,53.63
2016-09-13T08:43:42.910Z,53.63
2016-09-13T08:44:08.473Z,53.05
2016-09-13T08:44:34.025Z,52.95